createdAt,value
2022-11-02T00:00:22.924Z,1012.63
2022-11-02T00:01:23.305Z,1012.59
2022-11-02T00:02:23.576Z,1012.60
2022-11-02T00:03:23.765Z,1012.65
2022-11-02T00:04:24.065Z,1012.60
2022-11-02T00:05:24.349Z,1012.62
2022-11-02T00:06:24.644Z,1012.63
2022-11-02T00:07:24.955Z,1012.65
2022-11-02T00:08:25.247Z,1012.65
2022-11-02T00:09:25.543Z,1012.62
2022-11-02T00:10:25.845Z,1012.62
2022-11-02T00:11:26.141Z,1012.61
2022-11-02T00:12:26.456Z,1012.64
2022-11-02T00:13:26.775Z,1012.62
2022-11-02T00:14:27.082Z,1012.60
2022-11-02T00:15:27.373Z,1012.64
2022-11-02T00:16:27.668Z,1012.60
2022-11-02T00:17:27.981Z,1012.62
2022-11-02T00:18:28.272Z,1012.68
2022-11-02T00:19:28.570Z,1012.65
2022-11-02T00:20:28.864Z,1012.67
2022-11-02T00:21:29.185Z,1012.68
2022-11-02T00:22:29.501Z,1012.62
2022-11-02T00:23:29.794Z,1012.65
2022-11-02T00:24:30.101Z,1012.65
2022-11-02T00:25:30.393Z,1012.63
2022-11-02T00:26:30.698Z,1012.60
2022-11-02T00:27:31.008Z,1012.62
2022-11-02T00:28:31.311Z,1012.62
2022-11-02T00:29:34.023Z,1012.58
2022-11-02T00:30:31.872Z,1012.61
2022-11-02T00:31:32.179Z,1012.61
2022-11-02T00:32:32.578Z,1012.60
2022-11-02T00:33:32.849Z,1012.64
2022-11-02T00:34:33.144Z,1012.65
2022-11-02T00:35:33.450Z,1012.66
2022-11-02T00:36:33.816Z,1012.67
2022-11-02T00:38:34.441Z,1012.71
2022-11-02T00:39:34.732Z,1012.69
2022-11-02T00:40:35.028Z,1012.65
2022-11-02T00:41:35.327Z,1012.66
2022-11-02T00:42:35.652Z,1012.66
2022-11-02T00:43:35.937Z,1012.66
2022-11-02T00:44:36.228Z,1012.64
2022-11-02T00:45:36.525Z,1012.67
2022-11-02T00:46:36.819Z,1012.66
2022-11-02T00:47:37.137Z,1012.69
2022-11-02T00:48:37.429Z,1012.68
2022-11-02T00:49:37.732Z,1012.67
2022-11-02T00:50:38.026Z,1012.68
2022-11-02T00:51:38.320Z,1012.70
2022-11-02T00:52:38.644Z,1012.70
2022-11-02T00:53:38.962Z,1012.68
2022-11-02T00:54:39.253Z,1012.71
2022-11-02T00:55:39.544Z,1012.72
2022-11-02T00:56:39.867Z,1012.71
2022-11-02T00:57:47.197Z,1012.73
2022-11-02T00:58:40.444Z,1012.78
2022-11-02T00:59:40.741Z,1012.74
2022-11-02T01:00:42.761Z,1012.72
2022-11-02T01:01:41.508Z,1012.69
2022-11-02T01:02:41.784Z,1012.70
2022-11-02T01:03:41.933Z,1012.69
2022-11-02T01:04:42.216Z,1012.64
2022-11-02T01:05:42.510Z,1012.67
2022-11-02T01:06:42.813Z,1012.62
2022-11-02T01:07:43.130Z,1012.61
2022-11-02T01:08:43.446Z,1012.65
2022-11-02T01:09:43.772Z,1012.64
2022-11-02T01:10:47.297Z,1012.67
2022-11-02T01:11:44.369Z,1012.68
2022-11-02T01:12:44.698Z,1012.68
2022-11-02T01:13:45.016Z,1012.65
2022-11-02T01:14:45.339Z,1012.67
2022-11-02T01:15:45.619Z,1012.64
2022-11-02T01:17:46.310Z,1012.68
2022-11-02T01:18:46.604Z,1012.68
2022-11-02T01:19:46.921Z,1012.69
2022-11-02T01:20:47.244Z,1012.69
2022-11-02T01:21:47.556Z,1012.70
2022-11-02T01:22:47.870Z,1012.74
2022-11-02T01:23:48.175Z,1012.73
2022-11-02T01:24:48.495Z,1012.71
2022-11-02T01:25:48.813Z,1012.74
2022-11-02T01:26:49.110Z,1012.71
2022-11-02T01:27:49.432Z,1012.69
2022-11-02T01:28:49.727Z,1012.68
2022-11-02T01:29:50.047Z,1012.69
2022-11-02T01:30:50.345Z,1012.67
2022-11-02T01:31:50.644Z,1012.70
2022-11-02T01:32:50.979Z,1012.71
2022-11-02T01:33:51.274Z,1012.70
2022-11-02T01:34:51.583Z,1012.68
2022-11-02T01:35:51.896Z,1012.68
2022-11-02T01:36:52.213Z,1012.70
2022-11-02T01:37:52.533Z,1012.71
2022-11-02T01:38:52.845Z,1012.66
2022-11-02T01:39:53.160Z,1012.62
2022-11-02T01:40:53.462Z,1012.63
2022-11-02T01:41:53.772Z,1012.57
2022-11-02T01:42:54.102Z,1012.57
2022-11-02T01:43:54.391Z,1012.56
2022-11-02T01:44:54.710Z,1012.56
2022-11-02T01:45:55.001Z,1012.54
2022-11-02T01:46:55.329Z,1012.54
2022-11-02T01:47:55.619Z,1012.50
2022-11-02T01:48:55.920Z,1012.45
2022-11-02T01:49:56.228Z,1012.47
2022-11-02T01:50:56.528Z,1012.44
2022-11-02T01:51:56.838Z,1012.48
2022-11-02T01:52:57.171Z,1012.44
2022-11-02T01:53:57.468Z,1012.45
2022-11-02T01:54:57.785Z,1012.42
2022-11-02T01:55:58.111Z,1012.43
2022-11-02T01:56:58.420Z,1012.42
2022-11-02T01:57:58.723Z,1012.43
2022-11-02T01:58:59.024Z,1012.44
2022-11-02T01:59:59.327Z,1012.41
2022-11-02T02:00:59.627Z,1012.43
2022-11-02T02:02:00.061Z,1012.42
2022-11-02T02:03:00.238Z,1012.43
2022-11-02T02:04:00.540Z,1012.41
2022-11-02T02:05:00.854Z,1012.40
2022-11-02T02:06:01.152Z,1012.39
2022-11-02T02:07:01.456Z,1012.40
2022-11-02T02:08:02.134Z,1012.38
2022-11-02T02:09:02.077Z,1012.39
2022-11-02T02:10:02.379Z,1012.41
2022-11-02T02:11:02.702Z,1012.41
2022-11-02T02:12:03.002Z,1012.40
2022-11-02T02:13:03.324Z,1012.37
2022-11-02T02:14:03.621Z,1012.37
2022-11-02T02:15:03.923Z,1012.37
2022-11-02T02:16:04.223Z,1012.36
2022-11-02T02:17:04.542Z,1012.41
2022-11-02T02:18:05.146Z,1012.40
2022-11-02T02:19:05.116Z,1012.40
2022-11-02T02:20:05.416Z,1012.38
2022-11-02T02:21:05.724Z,1012.40
2022-11-02T02:22:06.038Z,1012.38
2022-11-02T02:23:06.352Z,1012.36
2022-11-02T02:24:06.648Z,1012.39
2022-11-02T02:25:06.957Z,1012.36
2022-11-02T02:26:07.251Z,1012.37
2022-11-02T02:27:07.549Z,1012.36
2022-11-02T02:28:07.881Z,1012.38
2022-11-02T02:29:08.183Z,1012.34
2022-11-02T02:30:08.472Z,1012.30
2022-11-02T02:31:08.773Z,1012.30
2022-11-02T02:32:09.081Z,1012.32
2022-11-02T02:33:09.396Z,1012.28
2022-11-02T02:34:09.700Z,1012.33
2022-11-02T02:35:09.998Z,1012.29
2022-11-02T02:36:10.298Z,1012.28
2022-11-02T02:37:10.613Z,1012.25
2022-11-02T02:38:10.918Z,1012.27
2022-11-02T02:39:11.257Z,1012.26
2022-11-02T02:40:11.552Z,1012.28
2022-11-02T02:41:12.001Z,1012.23
2022-11-02T02:42:12.186Z,1012.24
2022-11-02T02:43:12.509Z,1012.22
2022-11-02T02:44:12.807Z,1012.26
2022-11-02T02:45:13.122Z,1012.21
2022-11-02T02:46:13.516Z,1012.23
2022-11-02T02:47:13.740Z,1012.25
2022-11-02T02:48:14.089Z,1012.22
2022-11-02T02:49:14.386Z,1012.21
2022-11-02T02:50:14.693Z,1012.23
2022-11-02T02:51:15.101Z,1012.21
2022-11-02T02:52:15.298Z,1012.18
2022-11-02T02:53:15.614Z,1012.20
2022-11-02T02:54:15.912Z,1012.17
2022-11-02T02:55:16.217Z,1012.21
2022-11-02T02:56:16.526Z,1012.17
2022-11-02T02:57:16.849Z,1012.17
2022-11-02T02:58:17.162Z,1012.19
2022-11-02T02:59:17.481Z,1012.18
2022-11-02T03:00:17.784Z,1012.19
2022-11-02T03:01:18.156Z,1012.21
2022-11-02T03:02:18.669Z,1012.21
2022-11-02T03:03:18.725Z,1012.24
2022-11-02T03:04:19.037Z,1012.24
2022-11-02T03:05:19.355Z,1012.24
2022-11-02T03:06:19.669Z,1012.26
2022-11-02T03:07:19.955Z,1012.22
2022-11-02T03:08:20.282Z,1012.28
2022-11-02T03:09:20.583Z,1012.25
2022-11-02T03:10:20.881Z,1012.25
2022-11-02T03:11:21.180Z,1012.22
2022-11-02T03:12:21.483Z,1012.30
2022-11-02T03:13:21.812Z,1012.24
2022-11-02T03:14:22.102Z,1012.21
2022-11-02T03:15:22.400Z,1012.18
2022-11-02T03:16:22.700Z,1012.14
2022-11-02T03:17:23.001Z,1012.17
2022-11-02T03:18:23.332Z,1012.14
2022-11-02T03:19:23.644Z,1012.11
2022-11-02T03:20:23.938Z,1012.16
2022-11-02T03:21:24.228Z,1012.18
2022-11-02T03:22:24.537Z,1012.16
2022-11-02T03:23:24.957Z,1012.15
2022-11-02T03:24:25.158Z,1012.16
2022-11-02T03:25:25.449Z,1012.15
2022-11-02T03:26:25.757Z,1012.19
2022-11-02T03:27:26.056Z,1012.25
2022-11-02T03:28:26.408Z,1012.27
2022-11-02T03:29:26.707Z,1012.27
2022-11-02T03:30:27.006Z,1012.35
2022-11-02T03:31:27.302Z,1012.29
2022-11-02T03:32:27.609Z,1012.33
2022-11-02T03:33:27.925Z,1012.26
2022-11-02T03:34:28.230Z,1012.27
2022-11-02T03:35:29.487Z,1012.25
2022-11-02T03:36:28.897Z,1012.28
2022-11-02T03:37:29.203Z,1012.26
2022-11-02T03:38:29.538Z,1012.26
2022-11-02T03:39:29.856Z,1012.25
2022-11-02T03:40:30.166Z,1012.26
2022-11-02T03:41:30.473Z,1012.25
2022-11-02T03:42:30.810Z,1012.26
2022-11-02T03:43:31.131Z,1012.26
2022-11-02T03:44:31.434Z,1012.29
2022-11-02T03:45:31.756Z,1012.30
2022-11-02T03:46:32.085Z,1012.38
2022-11-02T03:47:32.392Z,1012.37
2022-11-02T03:48:32.716Z,1012.35
2022-11-02T03:49:33.026Z,1012.32
2022-11-02T03:50:33.333Z,1012.33
2022-11-02T03:51:33.631Z,1012.35
2022-11-02T03:52:33.940Z,1012.32
2022-11-02T03:53:34.266Z,1012.31
2022-11-02T03:54:34.575Z,1012.31
2022-11-02T03:55:34.872Z,1012.31
2022-11-02T03:56:35.305Z,1012.28
2022-11-02T03:57:35.471Z,1012.23
2022-11-02T03:58:35.788Z,1012.29
2022-11-02T03:59:36.111Z,1012.25
2022-11-02T04:00:36.401Z,1012.25
2022-11-02T04:01:36.759Z,1012.26
2022-11-02T04:02:37.023Z,1012.27
2022-11-02T04:03:37.323Z,1012.34
2022-11-02T04:04:37.629Z,1012.32
2022-11-02T04:05:37.938Z,1012.34
2022-11-02T04:06:38.237Z,1012.30
2022-11-02T04:07:38.569Z,1012.26
2022-11-02T04:08:38.878Z,1012.24
2022-11-02T04:09:39.199Z,1012.27
2022-11-02T04:10:39.511Z,1012.24
2022-11-02T04:11:39.821Z,1012.24
2022-11-02T04:12:40.146Z,1012.24
2022-11-02T04:13:40.469Z,1012.22
2022-11-02T04:14:40.787Z,1012.21
2022-11-02T04:15:41.085Z,1012.22
2022-11-02T04:16:41.395Z,1012.19
2022-11-02T04:17:41.705Z,1012.17
2022-11-02T04:18:42.033Z,1012.17
2022-11-02T04:19:45.499Z,1012.20
2022-11-02T04:20:43.616Z,1012.19
2022-11-02T04:21:42.922Z,1012.23
2022-11-02T04:22:43.227Z,1012.20
2022-11-02T04:23:43.554Z,1012.25
2022-11-02T04:24:43.865Z,1012.19
2022-11-02T04:25:44.181Z,1012.19
2022-11-02T04:26:44.496Z,1012.20
2022-11-02T04:27:44.785Z,1012.21
2022-11-02T04:28:45.117Z,1012.17
2022-11-02T04:29:45.422Z,1012.24
2022-11-02T04:30:45.732Z,1012.22
2022-11-02T04:31:46.043Z,1012.28
2022-11-02T04:32:46.354Z,1012.22
2022-11-02T04:33:46.675Z,1012.24
2022-11-02T04:34:46.987Z,1012.24
2022-11-02T04:35:47.356Z,1012.27
2022-11-02T04:36:47.662Z,1012.30
2022-11-02T04:37:47.971Z,1012.31
2022-11-02T04:38:48.300Z,1012.31
2022-11-02T04:39:48.611Z,1012.28
2022-11-02T04:40:48.909Z,1012.31
2022-11-02T04:41:49.212Z,1012.29
2022-11-02T04:42:49.520Z,1012.28
2022-11-02T04:43:49.844Z,1012.27
2022-11-02T04:44:50.158Z,1012.29
2022-11-02T04:45:50.467Z,1012.31
2022-11-02T04:46:50.791Z,1012.28
2022-11-02T04:47:51.110Z,1012.31
2022-11-02T04:48:51.467Z,1012.32
2022-11-02T04:49:51.771Z,1012.33
2022-11-02T04:50:52.085Z,1012.33
2022-11-02T04:51:52.406Z,1012.36
2022-11-02T04:52:52.722Z,1012.32
2022-11-02T04:53:53.057Z,1012.29
2022-11-02T04:54:53.365Z,1012.30
2022-11-02T04:55:53.678Z,1012.34
2022-11-02T04:56:53.995Z,1012.31
2022-11-02T04:57:54.389Z,1012.28
2022-11-02T04:58:54.716Z,1012.23
2022-11-02T04:59:55.016Z,1012.29
2022-11-02T05:00:55.326Z,1012.33
2022-11-02T05:01:55.727Z,1012.29
2022-11-02T05:02:56.070Z,1012.31
2022-11-02T05:03:56.322Z,1012.25
2022-11-02T05:04:56.644Z,1012.26
2022-11-02T05:05:56.999Z,1012.23
2022-11-02T05:07:01.266Z,1012.27
2022-11-02T05:07:57.665Z,1012.32
2022-11-02T05:08:58.002Z,1012.33
2022-11-02T05:09:58.316Z,1012.30
2022-11-02T05:10:58.662Z,1012.30
2022-11-02T05:11:58.962Z,1012.31
2022-11-02T05:12:59.284Z,1012.30
2022-11-02T05:13:59.602Z,1012.30
2022-11-02T05:14:59.922Z,1012.26
2022-11-02T05:16:00.262Z,1012.26
2022-11-02T05:17:00.560Z,1012.27
2022-11-02T05:18:00.942Z,1012.25
2022-11-02T05:19:01.652Z,1012.29
2022-11-02T05:20:01.559Z,1012.28
2022-11-02T05:21:01.924Z,1012.28
2022-11-02T05:22:02.249Z,1012.28
2022-11-02T05:23:02.954Z,1012.32
2022-11-02T05:24:02.877Z,1012.34
2022-11-02T05:25:03.190Z,1012.36
2022-11-02T05:26:03.502Z,1012.36
2022-11-02T05:27:03.854Z,1012.37
2022-11-02T05:28:04.219Z,1012.37
2022-11-02T05:29:04.604Z,1012.37
2022-11-02T05:30:04.878Z,1012.33
2022-11-02T05:31:05.199Z,1012.32
2022-11-02T05:32:05.570Z,1012.28
2022-11-02T05:33:06.291Z,1012.25
2022-11-02T05:34:06.259Z,1012.23
2022-11-02T05:35:06.578Z,1012.27
2022-11-02T05:36:06.826Z,1012.22
2022-11-02T05:37:07.195Z,1012.16
2022-11-02T05:38:07.577Z,1012.22
2022-11-02T05:39:07.946Z,1012.21
2022-11-02T05:40:08.318Z,1012.21
2022-11-02T05:41:08.690Z,1012.25
2022-11-02T05:42:09.047Z,1012.28
2022-11-02T05:43:09.511Z,1012.30
2022-11-02T05:44:10.130Z,1012.34
2022-11-02T05:45:10.174Z,1012.34
2022-11-02T05:46:10.455Z,1012.33
2022-11-02T05:47:10.744Z,1012.36
2022-11-02T05:48:11.025Z,1012.31
2022-11-02T05:49:11.408Z,1012.32
2022-11-02T05:50:11.733Z,1012.29
2022-11-02T05:51:12.060Z,1012.25
2022-11-02T05:52:12.426Z,1012.24
2022-11-02T05:53:12.734Z,1012.23
2022-11-02T05:54:13.062Z,1012.28
2022-11-02T05:55:13.383Z,1012.23
2022-11-02T05:56:13.694Z,1012.23
2022-11-02T05:57:14.013Z,1012.24
2022-11-02T05:58:14.326Z,1012.28
2022-11-02T05:59:14.654Z,1012.21
2022-11-02T06:00:14.960Z,1012.16
2022-11-02T06:01:15.333Z,1012.22
2022-11-02T06:02:15.553Z,1012.25
2022-11-02T06:03:15.870Z,1012.27
2022-11-02T06:04:16.264Z,1012.30
2022-11-02T06:05:16.508Z,1012.33
2022-11-02T06:06:16.908Z,1012.29
2022-11-02T06:07:17.179Z,1012.27
2022-11-02T06:08:17.490Z,1012.30
2022-11-02T06:09:17.824Z,1012.30
2022-11-02T06:10:18.160Z,1012.29
2022-11-02T06:11:18.478Z,1012.27
2022-11-02T06:12:18.787Z,1012.28
2022-11-02T06:13:19.093Z,1012.23
2022-11-02T06:14:19.421Z,1012.28
2022-11-02T06:15:19.731Z,1012.22
2022-11-02T06:16:23.008Z,1012.24
2022-11-02T06:17:20.408Z,1012.23
2022-11-02T06:18:20.721Z,1012.29
2022-11-02T06:19:21.073Z,1012.31
2022-11-02T06:20:21.379Z,1012.29
2022-11-02T06:21:21.687Z,1012.26
2022-11-02T06:22:22.027Z,1012.26
2022-11-02T06:23:22.336Z,1012.30
2022-11-02T06:24:22.653Z,1012.27
2022-11-02T06:25:22.966Z,1012.27
2022-11-02T06:26:23.265Z,1012.24
2022-11-02T06:27:23.587Z,1012.23
2022-11-02T06:28:23.892Z,1012.28
2022-11-02T06:29:24.243Z,1012.25
2022-11-02T06:30:24.547Z,1012.28
2022-11-02T06:31:24.862Z,1012.25
2022-11-02T06:32:25.175Z,1012.24
2022-11-02T06:33:25.475Z,1012.25
2022-11-02T06:34:25.803Z,1012.24
2022-11-02T06:35:26.113Z,1012.30
2022-11-02T06:36:26.434Z,1012.28
2022-11-02T06:37:26.733Z,1012.27
2022-11-02T06:38:27.039Z,1012.35
2022-11-02T06:39:27.435Z,1012.28
2022-11-02T06:40:27.647Z,1012.33
2022-11-02T06:41:27.953Z,1012.32
2022-11-02T06:42:28.285Z,1012.33
2022-11-02T06:43:28.586Z,1012.34
2022-11-02T06:44:28.910Z,1012.35
2022-11-02T06:45:29.234Z,1012.35
2022-11-02T06:46:29.526Z,1012.42
2022-11-02T06:47:29.857Z,1012.47
2022-11-02T06:48:34.896Z,1012.47
2022-11-02T06:49:31.468Z,1012.51
2022-11-02T06:50:30.760Z,1012.50
2022-11-02T06:51:31.064Z,1012.53
2022-11-02T06:52:31.374Z,1012.45
2022-11-02T06:53:31.689Z,1012.47
2022-11-02T06:54:32.019Z,1012.46
2022-11-02T06:55:32.338Z,1012.49
2022-11-02T06:56:32.648Z,1012.48
2022-11-02T06:57:32.955Z,1012.53
2022-11-02T06:58:40.280Z,1012.53
2022-11-02T06:59:33.550Z,1012.46
2022-11-02T07:00:33.972Z,1012.50
2022-11-02T07:01:34.999Z,1012.54
2022-11-02T07:02:34.555Z,1012.45
2022-11-02T07:03:34.739Z,1012.50
2022-11-02T07:04:35.053Z,1012.50
2022-11-02T07:05:35.351Z,1012.46
2022-11-02T07:06:35.659Z,1012.57
2022-11-02T07:07:35.962Z,1012.55
2022-11-02T07:08:36.273Z,1012.59
2022-11-02T07:09:36.586Z,1012.52
2022-11-02T07:10:36.878Z,1012.54
2022-11-02T07:11:37.158Z,1012.53
2022-11-02T07:12:37.447Z,1012.49
2022-11-02T07:13:37.736Z,1012.46
2022-11-02T07:14:38.079Z,1012.51
2022-11-02T07:15:38.364Z,1012.49
2022-11-02T07:16:38.647Z,1012.54
2022-11-02T07:17:38.924Z,1012.53
2022-11-02T07:18:39.218Z,1012.48
2022-11-02T07:19:39.535Z,1012.54
2022-11-02T07:20:39.827Z,1012.49
2022-11-02T07:21:42.416Z,1012.49
2022-11-02T07:22:41.358Z,1012.50
2022-11-02T07:23:40.643Z,1012.45
2022-11-02T07:24:40.923Z,1012.47
2022-11-02T07:25:41.205Z,1012.43
2022-11-02T07:26:41.475Z,1012.48
2022-11-02T07:27:41.775Z,1012.42
2022-11-02T07:28:42.056Z,1012.47
2022-11-02T07:29:42.344Z,1012.41
2022-11-02T07:30:42.613Z,1012.41
2022-11-02T07:31:42.897Z,1012.40
2022-11-02T07:32:43.169Z,1012.46
2022-11-02T07:33:43.439Z,1012.49
2022-11-02T07:34:43.724Z,1012.49
2022-11-02T07:35:43.986Z,1012.56
2022-11-02T07:36:44.259Z,1012.48
2022-11-02T07:37:44.553Z,1012.42
2022-11-02T07:38:44.796Z,1012.44
2022-11-02T07:39:45.073Z,1012.38
2022-11-02T07:40:45.382Z,1012.47
2022-11-02T07:41:50.791Z,1012.58
2022-11-02T07:42:46.845Z,1012.58
2022-11-02T07:43:46.086Z,1012.53
2022-11-02T07:44:46.361Z,1012.60
2022-11-02T07:45:46.617Z,1012.59
2022-11-02T07:46:46.878Z,1012.52
2022-11-02T07:47:47.141Z,1012.62
2022-11-02T07:48:47.391Z,1012.54
2022-11-02T07:49:47.651Z,1012.50
2022-11-02T07:50:47.897Z,1012.55
2022-11-02T07:51:48.132Z,1012.53
2022-11-02T07:52:48.381Z,1012.53
2022-11-02T07:53:48.621Z,1012.53
2022-11-02T07:54:48.865Z,1012.50
2022-11-02T07:55:49.175Z,1012.50
2022-11-02T07:56:49.390Z,1012.49
2022-11-02T07:57:49.769Z,1012.52
2022-11-02T07:58:49.894Z,1012.52
2022-11-02T07:59:50.161Z,1012.62
2022-11-02T08:00:50.423Z,1012.58
2022-11-02T08:01:50.726Z,1012.54
2022-11-02T08:02:50.933Z,1012.51
2022-11-02T08:03:51.085Z,1012.57
2022-11-02T08:04:52.235Z,1012.54
2022-11-02T08:05:51.640Z,1012.57
2022-11-02T08:06:51.748Z,1012.63
2022-11-02T08:07:51.979Z,1012.58
2022-11-02T08:08:53.158Z,1012.60
2022-11-02T08:09:52.567Z,1012.60
2022-11-02T08:10:52.678Z,1012.53
2022-11-02T08:11:53.005Z,1012.58
2022-11-02T08:12:53.141Z,1012.59
2022-11-02T08:13:53.371Z,1012.68
2022-11-02T08:14:54.499Z,1012.65
2022-11-02T08:15:53.950Z,1012.64
2022-11-02T08:16:54.112Z,1012.51
2022-11-02T08:17:54.357Z,1012.51
2022-11-02T08:18:54.606Z,1012.59
2022-11-02T08:19:54.874Z,1012.55
2022-11-02T08:20:56.487Z,1012.52
2022-11-02T08:21:55.375Z,1012.46
2022-11-02T08:22:56.507Z,1012.55
2022-11-02T08:23:58.548Z,1012.56
2022-11-02T08:24:56.191Z,1012.60
2022-11-02T08:25:56.359Z,1012.63
2022-11-02T08:26:56.640Z,1012.65
2022-11-02T08:27:56.899Z,1012.62
2022-11-02T08:28:57.142Z,1012.65
2022-11-02T08:29:57.420Z,1012.63
2022-11-02T08:30:57.613Z,1012.64
2022-11-02T08:31:57.882Z,1012.64
2022-11-02T08:32:58.158Z,1012.62
2022-11-02T08:33:58.423Z,1012.66
2022-11-02T08:34:58.732Z,1012.68
2022-11-02T08:35:59.123Z,1012.69
2022-11-02T08:36:59.282Z,1012.72
2022-11-02T08:37:59.580Z,1012.75
2022-11-02T08:38:59.860Z,1012.69
2022-11-02T08:40:00.179Z,1012.72
2022-11-02T08:41:00.438Z,1012.69
2022-11-02T08:42:00.718Z,1012.70
2022-11-02T08:43:01.007Z,1012.74
2022-11-02T08:44:01.289Z,1012.70
2022-11-02T08:45:01.591Z,1012.69
2022-11-02T08:46:14.909Z,1012.72
2022-11-02T08:47:05.478Z,1012.65
2022-11-02T08:48:03.758Z,1012.70
2022-11-02T08:49:02.701Z,1012.59
2022-11-02T08:50:03.009Z,1012.58
2022-11-02T08:51:03.328Z,1012.55
2022-11-02T08:52:03.609Z,1012.61
2022-11-02T08:53:03.897Z,1012.58
2022-11-02T08:54:04.170Z,1012.59
2022-11-02T08:55:04.468Z,1012.63
2022-11-02T08:56:04.773Z,1012.67
2022-11-02T08:57:05.055Z,1012.69
2022-11-02T08:58:05.631Z,1012.68
2022-11-02T08:59:05.639Z,1012.69
2022-11-02T09:00:05.955Z,1012.66
2022-11-02T09:01:06.242Z,1012.69
2022-11-02T09:02:06.637Z,1012.76
2022-11-02T09:03:06.803Z,1012.75
2022-11-02T09:04:07.121Z,1012.68
2022-11-02T09:05:07.391Z,1012.62
2022-11-02T09:06:07.677Z,1012.69
2022-11-02T09:07:08.046Z,1012.59
2022-11-02T09:08:08.569Z,1012.65
2022-11-02T09:09:09.478Z,1012.57
2022-11-02T09:10:08.820Z,1012.56
2022-11-02T09:11:09.543Z,1012.62
2022-11-02T09:12:09.314Z,1012.58
2022-11-02T09:13:09.553Z,1012.65
2022-11-02T09:14:09.760Z,1012.69
2022-11-02T09:15:09.917Z,1012.71
2022-11-02T09:16:10.197Z,1012.60
2022-11-02T09:17:10.449Z,1012.59
2022-11-02T09:18:10.700Z,1012.61
2022-11-02T09:19:10.930Z,1012.57
2022-11-02T09:20:11.185Z,1012.67
2022-11-02T09:21:11.410Z,1012.70
2022-11-02T09:22:11.655Z,1012.67
2022-11-02T09:23:11.874Z,1012.64
2022-11-02T09:24:12.076Z,1012.61
2022-11-02T09:25:12.316Z,1012.68
2022-11-02T09:26:12.532Z,1012.69
2022-11-02T09:27:12.772Z,1012.67
2022-11-02T09:28:12.991Z,1012.71
2022-11-02T09:29:13.230Z,1012.71
2022-11-02T09:30:13.463Z,1012.74
2022-11-02T09:31:13.691Z,1012.80
2022-11-02T09:32:13.878Z,1012.71
2022-11-02T09:33:14.080Z,1012.65
2022-11-02T09:34:14.289Z,1012.71
2022-11-02T09:35:14.516Z,1012.71
2022-11-02T09:36:14.715Z,1012.72
2022-11-02T09:37:14.922Z,1012.69
2022-11-02T09:38:15.127Z,1012.66
2022-11-02T09:39:15.380Z,1012.63
2022-11-02T09:40:15.583Z,1012.61
2022-11-02T09:41:15.843Z,1012.63
2022-11-02T09:42:15.917Z,1012.69
2022-11-02T09:43:16.121Z,1012.69
2022-11-02T09:44:16.303Z,1012.69
2022-11-02T09:45:16.512Z,1012.78
2022-11-02T09:46:16.706Z,1012.80
2022-11-02T09:48:23.311Z,1012.71
2022-11-02T09:49:18.238Z,1012.67
2022-11-02T09:50:17.501Z,1012.75
2022-11-02T09:51:17.604Z,1012.70
2022-11-02T09:52:17.814Z,1012.65
2022-11-02T09:53:18.013Z,1012.80
2022-11-02T09:54:18.315Z,1012.71
2022-11-02T09:55:18.450Z,1012.70
2022-11-02T09:56:18.531Z,1012.78
2022-11-02T09:57:18.858Z,1012.78
2022-11-02T09:58:18.924Z,1012.73
2022-11-02T09:59:19.125Z,1012.76
2022-11-02T10:00:19.344Z,1012.72
2022-11-02T10:01:19.610Z,1012.80
2022-11-02T10:02:19.722Z,1012.65
2022-11-02T10:03:19.834Z,1012.67
2022-11-02T10:04:20.034Z,1012.71
2022-11-02T10:05:20.258Z,1012.67
2022-11-02T10:06:20.472Z,1012.58
2022-11-02T10:07:20.678Z,1012.65
2022-11-02T10:08:20.867Z,1012.72
2022-11-02T10:09:21.073Z,1012.68
2022-11-02T10:10:21.397Z,1012.65
2022-11-02T10:11:21.474Z,1012.71
2022-11-02T10:12:21.670Z,1012.72
2022-11-02T10:13:21.880Z,1012.75
2022-11-02T10:14:22.089Z,1012.69
2022-11-02T10:15:22.332Z,1012.69
2022-11-02T10:16:22.538Z,1012.79
2022-11-02T10:17:22.745Z,1012.84
2022-11-02T10:18:22.933Z,1012.74
2022-11-02T10:19:27.763Z,1012.71
2022-11-02T10:20:24.334Z,1012.74
2022-11-02T10:21:23.584Z,1012.74
2022-11-02T10:22:23.673Z,1012.73
2022-11-02T10:23:23.876Z,1012.73
2022-11-02T10:24:24.124Z,1012.72
2022-11-02T10:25:24.228Z,1012.68
2022-11-02T10:26:24.441Z,1012.93
2022-11-02T10:27:24.629Z,1012.78
2022-11-02T10:28:24.873Z,1012.81
2022-11-02T10:29:24.960Z,1012.75
2022-11-02T10:30:25.177Z,1012.73
2022-11-02T10:31:25.439Z,1012.81
2022-11-02T10:32:25.540Z,1012.74
2022-11-02T10:33:25.687Z,1012.76
2022-11-02T10:34:25.764Z,1012.81
2022-11-02T10:35:37.243Z,1012.75
2022-11-02T10:36:27.138Z,1012.71
2022-11-02T10:37:26.433Z,1012.71
2022-11-02T10:38:26.511Z,1012.73
2022-11-02T10:39:26.690Z,1012.73
2022-11-02T10:40:26.860Z,1012.73
2022-11-02T10:41:27.061Z,1012.75
2022-11-02T10:42:27.237Z,1012.76
2022-11-02T10:43:27.431Z,1012.65
2022-11-02T10:44:27.745Z,1012.64
2022-11-02T10:45:27.812Z,1012.62
2022-11-02T10:46:27.995Z,1012.71
2022-11-02T10:47:28.197Z,1012.72
2022-11-02T10:48:28.376Z,1012.62
2022-11-02T10:49:28.596Z,1012.73
2022-11-02T10:50:28.785Z,1012.68
2022-11-02T10:51:28.976Z,1012.65
2022-11-02T10:52:29.187Z,1012.69
2022-11-02T10:53:41.049Z,1012.68
2022-11-02T10:54:31.004Z,1012.66
2022-11-02T10:55:29.703Z,1012.72
2022-11-02T10:56:29.897Z,1012.74
2022-11-02T10:57:30.094Z,1012.70
2022-11-02T10:58:30.287Z,1012.72
2022-11-02T10:59:30.475Z,1012.72
2022-11-02T11:00:30.759Z,1012.78
2022-11-02T11:01:30.997Z,1012.88
2022-11-02T11:02:31.031Z,1012.93
2022-11-02T11:03:31.206Z,1012.88
2022-11-02T11:04:31.383Z,1012.93
2022-11-02T11:05:31.581Z,1012.82
2022-11-02T11:06:31.748Z,1012.92
2022-11-02T11:07:31.944Z,1012.88
2022-11-02T11:08:32.119Z,1012.91
2022-11-02T11:09:32.324Z,1012.70
2022-11-02T11:10:32.483Z,1012.79
2022-11-02T11:11:32.668Z,1012.73
2022-11-02T11:12:32.880Z,1012.76
2022-11-02T11:15:49.746Z,1012.83
2022-11-02T11:16:34.506Z,1012.83
2022-11-02T11:20:34.149Z,1012.81
2022-11-02T11:21:34.366Z,1012.93
2022-11-02T11:22:34.608Z,1012.86
2022-11-02T11:23:34.811Z,1012.88
2022-11-02T11:24:35.060Z,1012.84
2022-11-02T11:25:35.264Z,1012.98
2022-11-02T11:26:35.492Z,1012.86
2022-11-02T11:27:35.724Z,1013.10
2022-11-02T11:28:35.951Z,1012.89
2022-11-02T11:29:36.176Z,1012.97
2022-11-02T11:31:37.578Z,1012.88
2022-11-02T11:32:36.832Z,1012.93
2022-11-02T11:33:37.065Z,1012.94
2022-11-02T11:34:37.316Z,1012.93
2022-11-02T11:35:37.575Z,1012.96
2022-11-02T11:36:37.835Z,1013.00
2022-11-02T11:37:38.106Z,1012.81
2022-11-02T11:38:38.355Z,1012.96
2022-11-02T11:39:38.592Z,1012.93
2022-11-02T11:40:38.836Z,1013.08
2022-11-02T11:41:39.086Z,1012.90
2022-11-02T11:42:39.370Z,1013.03
2022-11-02T11:43:39.613Z,1012.99
2022-11-02T11:44:39.870Z,1012.95
2022-11-02T11:45:40.115Z,1012.92
2022-11-02T11:46:40.377Z,1012.98
2022-11-02T11:47:40.629Z,1013.00
2022-11-02T11:48:40.968Z,1013.01
2022-11-02T11:50:07.339Z,1012.93
2022-11-02T11:50:42.312Z,1012.97
2022-11-02T11:51:41.608Z,1012.95
2022-11-02T11:52:41.875Z,1012.92
2022-11-02T11:53:42.125Z,1012.87
2022-11-02T11:54:42.397Z,1012.94
2022-11-02T11:55:42.651Z,1012.99
2022-11-02T11:56:42.904Z,1012.96
2022-11-02T11:57:43.208Z,1012.88
2022-11-02T11:58:46.564Z,1012.86
2022-11-02T11:59:44.665Z,1012.80
2022-11-02T12:00:43.916Z,1012.96
2022-11-02T12:01:44.252Z,1012.90
2022-11-02T12:02:45.023Z,1012.90
2022-11-02T12:03:44.699Z,1012.93
2022-11-02T12:04:44.969Z,1012.89
2022-11-02T12:05:45.226Z,1012.92
2022-11-02T12:06:45.526Z,1012.96
2022-11-02T12:07:45.786Z,1012.86
2022-11-02T12:08:46.041Z,1012.85
2022-11-02T12:09:46.305Z,1012.88
2022-11-02T12:10:46.572Z,1012.96
2022-11-02T12:11:46.837Z,1012.90
2022-11-02T12:12:47.129Z,1012.93
2022-11-02T12:13:47.379Z,1012.86
2022-11-02T12:14:47.633Z,1012.87
2022-11-02T12:15:47.885Z,1012.84
2022-11-02T12:16:48.119Z,1012.84
2022-11-02T12:17:48.386Z,1012.85